createdAt,value
2018-11-05T00:01:41.563Z,95.23
2018-11-05T00:04:10.535Z,84.23
2018-11-05T00:06:39.622Z,85.70
2018-11-05T00:09:10.010Z,74.60
2018-11-05T00:11:38.971Z,77.27
2018-11-05T00:14:08.663Z,66.90
2018-11-05T00:16:37.954Z,71.43
2018-11-05T00:19:07.233Z,70.40
2018-11-05T00:21:36.225Z,73.93
2018-11-05T00:24:05.461Z,83.83
2018-11-05T00:26:34.437Z,65.80
2018-11-05T00:29:03.363Z,86.50
2018-11-05T00:31:32.324Z,91.33
2018-11-05T00:34:01.242Z,77.13
2018-11-05T00:36:30.274Z,72.60
2018-11-05T00:38:59.373Z,71.63
2018-11-05T00:41:28.374Z,76.50
2018-11-05T00:43:57.361Z,91.37
2018-11-05T00:46:26.278Z,78.27
2018-11-05T00:48:55.226Z,71.40
2018-11-05T00:51:24.613Z,75.23
2018-11-05T00:53:53.602Z,74.37
2018-11-05T00:56:22.577Z,70.90
2018-11-05T00:58:51.628Z,71.87
2018-11-05T01:01:21.623Z,67.20
2018-11-05T01:03:50.550Z,78.77
2018-11-05T01:06:19.481Z,75.57
2018-11-05T01:08:48.446Z,77.80
2018-11-05T01:11:17.353Z,60.73
2018-11-05T01:13:46.278Z,76.33
2018-11-05T01:16:15.259Z,69.40
2018-11-05T01:18:44.842Z,67.13
2018-11-05T01:21:13.761Z,64.73
2018-11-05T01:23:42.714Z,62.97
2018-11-05T01:26:11.833Z,53.37
2018-11-05T01:28:41.081Z,51.17
2018-11-05T01:31:10.074Z,51.33
2018-11-05T01:33:39.036Z,50.70
2018-11-05T01:36:07.970Z,56.63
2018-11-05T01:38:36.901Z,57.67
2018-11-05T01:41:05.880Z,60.67
2018-11-05T01:43:34.765Z,57.40
2018-11-05T01:46:03.706Z,52.37
2018-11-05T01:48:32.834Z,61.87
2018-11-05T01:51:01.794Z,61.67
2018-11-05T01:53:31.778Z,60.07
2018-11-05T01:56:00.684Z,66.43
2018-11-05T01:58:29.780Z,68.77
2018-11-05T02:00:58.843Z,66.00
2018-11-05T02:03:27.742Z,71.13
2018-11-05T02:05:56.821Z,77.73
2018-11-05T02:08:25.733Z,73.27
2018-11-05T02:10:54.806Z,76.80
2018-11-05T02:13:23.780Z,71.10
2018-11-05T02:15:52.665Z,68.50
2018-11-05T02:18:21.650Z,74.63
2018-11-05T02:20:50.617Z,78.63
2018-11-05T02:23:19.510Z,68.23
2018-11-05T02:25:48.410Z,81.53
2018-11-05T02:28:17.335Z,71.93
2018-11-05T02:30:46.274Z,65.07
2018-11-05T02:33:15.384Z,70.73
2018-11-05T02:35:44.299Z,70.53
2018-11-05T02:38:13.236Z,72.50
2018-11-05T02:40:42.310Z,82.17
2018-11-05T02:43:11.241Z,81.30
2018-11-05T02:45:40.178Z,76.63
2018-11-05T02:48:10.172Z,81.17
2018-11-05T02:50:40.185Z,82.30
2018-11-05T02:53:09.257Z,67.73
2018-11-05T02:55:38.253Z,80.57
2018-11-05T02:58:07.272Z,77.83
2018-11-05T03:00:36.220Z,69.83
2018-11-05T03:03:05.139Z,77.73
2018-11-05T03:05:34.105Z,72.03
2018-11-05T03:08:03.040Z,66.97
2018-11-05T03:10:31.956Z,65.30
2018-11-05T03:13:00.846Z,71.80
2018-11-05T03:15:29.835Z,68.77
2018-11-05T03:17:58.806Z,72.97
2018-11-05T03:20:27.709Z,55.77
2018-11-05T03:22:56.712Z,67.83
2018-11-05T03:25:25.629Z,62.23
2018-11-05T03:27:54.846Z,65.10
2018-11-05T03:30:23.771Z,57.43
2018-11-05T03:32:52.666Z,64.87
2018-11-05T03:35:21.582Z,61.07
2018-11-05T03:37:50.513Z,57.97
2018-11-05T03:40:19.453Z,56.40
2018-11-05T03:42:48.354Z,58.57
2018-11-05T03:45:17.522Z,57.13
2018-11-05T03:47:46.466Z,54.33
2018-11-05T03:50:17.030Z,54.30
2018-11-05T03:52:46.729Z,51.57
2018-11-05T03:55:16.747Z,54.87
2018-11-05T03:57:45.646Z,53.23
2018-11-05T04:00:15.681Z,52.57
2018-11-05T04:02:44.618Z,60.17
2018-11-05T04:05:13.907Z,54.67
2018-11-05T04:07:42.866Z,57.90
2018-11-05T04:10:12.829Z,62.70
2018-11-05T04:12:41.792Z,51.20
2018-11-05T04:15:11.055Z,68.10
2018-11-05T04:17:39.994Z,57.83
2018-11-05T04:20:10.559Z,67.07
2018-11-05T04:22:39.651Z,61.50
2018-11-05T04:25:08.606Z,56.40
2018-11-05T04:27:37.657Z,61.80
2018-11-05T04:30:09.726Z,66.93
2018-11-05T04:32:38.715Z,64.97
2018-11-05T04:35:07.939Z,74.73
2018-11-05T04:37:36.934Z,70.97
2018-11-05T04:40:06.693Z,72.50
2018-11-05T04:42:35.724Z,77.97
2018-11-05T04:45:05.761Z,83.13
2018-11-05T04:47:34.742Z,87.53
2018-11-05T04:50:04.846Z,76.87
2018-11-05T04:52:33.782Z,88.93
2018-11-05T04:55:02.746Z,98.43
2018-11-05T04:57:31.878Z,83.77
2018-11-05T05:00:05.058Z,68.80
2018-11-05T05:02:34.113Z,96.97
2018-11-05T05:05:03.253Z,99.70
2018-11-05T05:07:32.250Z,103.50
2018-11-05T05:10:01.349Z,95.27
2018-11-05T05:12:30.321Z,104.40
2018-11-05T05:14:59.665Z,92.50
2018-11-05T05:17:28.684Z,95.37
2018-11-05T05:19:57.615Z,128.03
2018-11-05T05:22:26.769Z,112.47
2018-11-05T05:24:55.715Z,122.03
2018-11-05T05:27:24.753Z,112.43
2018-11-05T05:29:53.740Z,108.43
2018-11-05T05:32:22.674Z,105.17
2018-11-05T05:34:51.646Z,103.13
2018-11-05T05:37:20.630Z,130.17
2018-11-05T05:39:49.910Z,111.13
2018-11-05T05:42:18.961Z,105.47
2018-11-05T05:44:47.932Z,103.23
2018-11-05T05:47:16.921Z,79.60
2018-11-05T05:49:46.006Z,92.87
2018-11-05T05:52:14.955Z,70.50
2018-11-05T05:54:43.997Z,81.60
2018-11-05T05:57:14.005Z,87.00
2018-11-05T05:59:43.136Z,90.67
2018-11-05T06:02:12.074Z,85.33
2018-11-05T06:04:41.406Z,103.30
2018-11-05T06:07:10.482Z,97.50
2018-11-05T06:09:39.545Z,95.60
2018-11-05T06:12:08.549Z,88.33
2018-11-05T06:14:37.497Z,92.60
2018-11-05T06:17:06.494Z,81.70
2018-11-05T06:19:35.795Z,83.17
2018-11-05T06:22:06.250Z,79.07
2018-11-05T06:24:35.213Z,82.73
2018-11-05T06:27:04.310Z,104.93
2018-11-05T06:29:33.382Z,95.87
2018-11-05T06:32:02.325Z,85.90
2018-11-05T06:34:31.289Z,111.03
2018-11-05T06:37:00.722Z,88.33
2018-11-05T06:39:29.881Z,99.33
2018-11-05T06:41:58.967Z,99.33
2018-11-05T06:44:27.845Z,110.00
2018-11-05T06:46:56.807Z,93.37
2018-11-05T06:49:25.913Z,111.37
2018-11-05T06:51:54.930Z,101.90
2018-11-05T06:54:23.893Z,89.90
2018-11-05T06:56:52.890Z,96.33
2018-11-05T06:59:22.205Z,124.40
2018-11-05T07:01:51.242Z,156.77
2018-11-05T07:04:20.369Z,209.03
2018-11-05T07:06:50.508Z,293.83
2018-11-05T07:09:19.482Z,364.80
2018-11-05T07:11:48.574Z,350.37
2018-11-05T07:14:17.665Z,401.57
2018-11-05T07:16:46.626Z,223.57
2018-11-05T07:19:15.710Z,333.93
2018-11-05T07:21:44.486Z,287.33
2018-11-05T07:24:13.433Z,280.47
2018-11-05T07:26:42.526Z,299.30
2018-11-05T07:29:11.590Z,302.07
2018-11-05T07:31:40.564Z,357.20
2018-11-05T07:34:09.500Z,206.63
2018-11-05T07:36:38.593Z,295.73
2018-11-05T07:39:09.284Z,234.37
2018-11-05T07:41:38.933Z,271.47
2018-11-05T07:44:08.029Z,286.70
2018-11-05T07:46:37.163Z,258.20
2018-11-05T07:49:06.166Z,410.70
2018-11-05T07:51:35.582Z,406.07
2018-11-05T07:54:04.755Z,362.07
2018-11-05T07:56:33.796Z,336.53
2018-11-05T07:59:03.817Z,345.77
2018-11-05T08:01:32.774Z,348.23
2018-11-05T08:04:01.721Z,355.77
2018-11-05T08:06:30.670Z,246.10
2018-11-05T08:09:00.721Z,393.40
2018-11-05T08:11:29.817Z,310.80
2018-11-05T08:13:58.797Z,256.53
2018-11-05T08:16:27.737Z,255.70
2018-11-05T08:18:56.697Z,289.17
2018-11-05T08:21:25.667Z,198.33
2018-11-05T08:23:54.651Z,188.93
2018-11-05T08:26:23.646Z,150.33
2018-11-05T08:28:52.718Z,156.73
2018-11-05T08:31:22.917Z,159.43
2018-11-05T08:33:52.050Z,179.63
2018-11-05T08:36:21.010Z,131.53
2018-11-05T08:38:50.105Z,219.13
2018-11-05T08:41:19.230Z,190.83
2018-11-05T08:43:48.197Z,147.23
2018-11-05T08:46:17.438Z,185.67
2018-11-05T08:48:46.414Z,237.53
2018-11-05T08:51:15.543Z,171.03
2018-11-05T08:53:44.397Z,160.37
2018-11-05T08:56:13.417Z,161.47
2018-11-05T08:58:42.399Z,129.07
2018-11-05T09:01:16.291Z,134.20
2018-11-05T09:03:46.385Z,126.87
2018-11-05T09:06:15.777Z,127.83
2018-11-05T09:08:45.269Z,114.90
2018-11-05T09:11:14.771Z,106.73
2018-11-05T09:13:43.458Z,138.97
2018-11-05T09:16:12.672Z,113.13
2018-11-05T09:18:41.684Z,111.53
2018-11-05T09:21:10.783Z,116.80
2018-11-05T09:23:39.779Z,125.20
2018-11-05T09:26:08.832Z,111.07
2018-11-05T09:28:37.953Z,121.90
2018-11-05T09:31:07.083Z,120.50
2018-11-05T09:33:36.056Z,162.60
2018-11-05T09:36:05.049Z,114.10
2018-11-05T09:38:34.018Z,114.23
2018-11-05T09:41:03.099Z,116.43
2018-11-05T09:43:32.029Z,96.10
2018-11-05T09:46:01.126Z,112.47
2018-11-05T09:48:30.134Z,82.27
2018-11-05T09:50:59.216Z,113.73
2018-11-05T09:53:28.189Z,110.93
2018-11-05T09:55:57.174Z,86.00
2018-11-05T09:58:26.155Z,104.13
2018-11-05T10:00:55.137Z,116.07
2018-11-05T10:03:24.320Z,120.57
2018-11-05T10:05:53.102Z,107.53
2018-11-05T10:08:22.242Z,92.93
2018-11-05T10:10:51.233Z,106.77
2018-11-05T10:13:20.156Z,95.47
2018-11-05T10:15:49.314Z,87.83
2018-11-05T10:18:18.278Z,91.00
2018-11-05T10:20:47.230Z,99.10
2018-11-05T10:23:16.443Z,99.60
2018-11-05T10:25:45.431Z,100.47
2018-11-05T10:28:14.626Z,111.83
2018-11-05T10:30:43.754Z,104.20
2018-11-05T10:33:12.855Z,93.30
2018-11-05T10:35:47.283Z,96.07
2018-11-05T10:38:16.256Z,96.00
2018-11-05T10:40:45.280Z,96.53
2018-11-05T10:43:14.249Z,99.43
2018-11-05T10:45:43.263Z,92.40
2018-11-05T10:48:12.274Z,81.90
2018-11-05T10:50:41.524Z,78.70
2018-11-05T10:53:10.382Z,93.33
2018-11-05T10:55:39.349Z,86.23
2018-11-05T10:58:08.334Z,86.53
2018-11-05T11:00:42.758Z,82.80
2018-11-05T11:03:14.919Z,77.60
2018-11-05T11:05:43.894Z,92.07
2018-11-05T11:08:12.910Z,78.77
2018-11-05T11:10:41.917Z,77.70
2018-11-05T11:13:11.038Z,79.97
2018-11-05T11:15:39.985Z,80.40
2018-11-05T11:18:09.148Z,84.23
2018-11-05T11:20:38.228Z,76.77
2018-11-05T11:23:07.302Z,75.63
2018-11-05T11:25:36.417Z,71.27
2018-11-05T11:28:05.860Z,73.80
2018-11-05T11:30:34.634Z,75.27
2018-11-05T11:33:03.650Z,71.30
2018-11-05T11:35:32.617Z,75.23
2018-11-05T11:38:02.006Z,70.10
2018-11-05T11:40:31.097Z,69.93
2018-11-05T11:43:00.149Z,68.30
2018-11-05T11:45:30.171Z,70.93
2018-11-05T11:47:59.186Z,70.77
2018-11-05T11:50:28.296Z,66.57
2018-11-05T11:52:57.450Z,69.17
2018-11-05T11:55:26.476Z,67.20
2018-11-05T11:57:55.408Z,64.83
2018-11-05T12:00:25.517Z,64.37
2018-11-05T12:02:54.954Z,72.27
2018-11-05T12:05:23.898Z,64.53
2018-11-05T12:07:52.767Z,62.90
2018-11-05T12:10:23.166Z,68.20
2018-11-05T12:12:52.136Z,66.50
2018-11-05T12:15:21.849Z,72.20
2018-11-05T12:17:52.288Z,64.97
2018-11-05T12:20:22.597Z,61.77
2018-11-05T12:22:52.006Z,59.17
2018-11-05T12:25:21.018Z,61.30
2018-11-05T12:27:50.000Z,58.30
2018-11-05T12:30:21.148Z,59.80
2018-11-05T12:32:50.955Z,54.97
2018-11-05T12:35:19.931Z,54.30
2018-11-05T12:37:50.066Z,57.90
2018-11-05T12:40:20.062Z,52.83
2018-11-05T12:42:49.785Z,56.63
2018-11-05T12:45:18.843Z,55.97
2018-11-05T12:47:48.817Z,51.70
2018-11-05T12:50:21.669Z,55.87
2018-11-05T12:52:51.787Z,66.23
2018-11-05T12:55:20.930Z,55.87
2018-11-05T12:57:49.946Z,54.03
2018-11-05T13:00:20.627Z,52.33
2018-11-05T13:02:54.619Z,68.23
2018-11-05T13:05:24.482Z,54.20
2018-11-05T13:07:53.474Z,62.13
2018-11-05T13:10:22.597Z,64.17
2018-11-05T13:12:51.539Z,54.90
2018-11-05T13:15:20.591Z,58.37
2018-11-05T13:17:49.614Z,61.67
2018-11-05T13:20:19.797Z,60.80
2018-11-05T13:22:48.940Z,57.77
2018-11-05T13:25:17.894Z,68.17
2018-11-05T13:27:48.105Z,60.50
2018-11-05T13:30:17.618Z,61.93
2018-11-05T13:32:46.877Z,58.73
2018-11-05T13:35:17.129Z,54.13
2018-11-05T13:37:46.408Z,55.53
2018-11-05T13:40:16.556Z,48.87
2018-11-05T13:42:46.261Z,52.10
2018-11-05T13:45:15.703Z,54.00
2018-11-05T13:47:45.367Z,50.70
2018-11-05T13:50:14.371Z,51.33
2018-11-05T13:52:43.157Z,49.30
2018-11-05T13:55:13.472Z,48.57
2018-11-05T13:57:43.706Z,49.97
2018-11-05T14:00:14.224Z,50.10
2018-11-05T14:02:43.217Z,47.97
2018-11-05T14:05:12.612Z,45.40
2018-11-05T14:07:41.893Z,44.00
2018-11-05T14:10:14.180Z,51.80
2018-11-05T14:12:44.658Z,50.27
2018-11-05T14:15:13.582Z,42.83
2018-11-05T14:17:43.230Z,70.00
2018-11-05T14:20:13.391Z,51.43
2018-11-05T14:22:42.985Z,42.60
2018-11-05T14:25:13.243Z,45.27
2018-11-05T14:27:43.502Z,50.27
2018-11-05T14:30:13.266Z,43.87
2018-11-05T14:32:44.532Z,42.43
2018-11-05T14:35:13.562Z,48.30
2018-11-05T14:37:42.694Z,45.60
2018-11-05T14:40:13.530Z,37.97
2018-11-05T14:42:42.675Z,40.20
2018-11-05T14:45:13.722Z,39.80
2018-11-05T14:47:43.897Z,42.53
2018-11-05T14:50:14.706Z,42.00
2018-11-05T14:52:43.872Z,44.97
2018-11-05T14:55:15.585Z,42.90
2018-11-05T14:57:45.491Z,36.50
2018-11-05T15:00:16.559Z,38.80
2018-11-05T15:02:46.535Z,52.87
2018-11-05T15:05:15.950Z,38.03
2018-11-05T15:07:46.053Z,37.60
2018-11-05T15:10:16.442Z,37.40
2018-11-05T15:12:45.515Z,42.63
2018-11-05T15:15:15.073Z,35.77
2018-11-05T15:17:44.691Z,39.80
2018-11-05T15:20:15.080Z,32.00
2018-11-05T15:22:43.805Z,45.27
2018-11-05T15:25:13.335Z,39.60
2018-11-05T15:27:42.442Z,41.30
2018-11-05T15:30:14.595Z,41.50
2018-11-05T15:32:43.897Z,58.87
2018-11-05T15:35:12.997Z,43.87
2018-11-05T15:37:42.840Z,45.50
2018-11-05T15:40:13.811Z,44.83
2018-11-05T15:42:43.082Z,48.87
2018-11-05T15:45:13.654Z,37.90
2018-11-05T15:47:43.201Z,42.50
2018-11-05T15:50:14.719Z,43.73
2018-11-05T15:52:44.292Z,37.43
2018-11-05T15:55:13.281Z,39.67
2018-11-05T15:57:43.558Z,41.63
2018-11-05T16:00:16.128Z,35.97
2018-11-05T16:02:46.559Z,38.17
2018-11-05T16:05:15.659Z,42.27
2018-11-05T16:07:45.006Z,45.40
2018-11-05T16:10:14.200Z,46.47
2018-11-05T16:12:43.241Z,38.07
2018-11-05T16:15:13.138Z,38.63
2018-11-05T16:17:42.165Z,44.80
2018-11-05T16:20:20.009Z,42.30
2018-11-05T16:22:49.910Z,46.00
2018-11-05T16:25:18.954Z,40.87
2018-11-05T16:27:48.111Z,49.40
2018-11-05T16:30:19.748Z,42.77
2018-11-05T16:32:49.338Z,45.47
2018-11-05T16:35:18.369Z,49.47
2018-11-05T16:37:47.336Z,48.93
2018-11-05T16:40:17.538Z,44.93
2018-11-05T16:42:47.649Z,37.83
2018-11-05T16:45:16.802Z,48.60
2018-11-05T16:47:46.020Z,44.33
2018-11-05T16:50:26.334Z,40.10
2018-11-05T16:52:55.607Z,41.73
2018-11-05T16:55:25.059Z,40.63
2018-11-05T16:57:54.101Z,43.57
2018-11-05T17:00:23.046Z,47.47
2018-11-05T17:02:52.048Z,45.30
2018-11-05T17:05:20.995Z,39.17
2018-11-05T17:07:50.094Z,39.53
2018-11-05T17:10:19.204Z,40.40
2018-11-05T17:12:48.294Z,40.70
2018-11-05T17:15:17.557Z,40.00
2018-11-05T17:17:46.693Z,36.13
2018-11-05T17:20:17.292Z,43.50
2018-11-05T17:22:46.426Z,42.63
2018-11-05T17:25:15.971Z,51.10
2018-11-05T17:27:45.681Z,40.50
2018-11-05T17:30:17.251Z,40.83
2018-11-05T17:32:46.350Z,45.30
2018-11-05T17:35:15.844Z,37.63
2018-11-05T17:37:45.547Z,43.60
2018-11-05T17:40:15.852Z,39.67
2018-11-05T17:42:44.749Z,38.77
2018-11-05T17:45:15.257Z,39.60
2018-11-05T17:47:44.627Z,46.63
2018-11-05T17:50:15.057Z,36.93
2018-11-05T17:52:44.440Z,47.80
2018-11-05T17:55:14.037Z,41.03
2018-11-05T17:57:44.130Z,41.50
2018-11-05T18:00:14.907Z,44.30
2018-11-05T18:02:44.031Z,42.50
2018-11-05T18:05:13.353Z,43.33
2018-11-05T18:07:43.713Z,45.83
2018-11-05T18:10:12.926Z,39.50
2018-11-05T18:12:42.925Z,37.00
2018-11-05T18:15:12.529Z,45.20
2018-11-05T18:17:42.317Z,38.10
2018-11-05T18:20:12.502Z,40.50
2018-11-05T18:22:41.834Z,42.70
2018-11-05T18:25:13.286Z,53.90
2018-11-05T18:27:42.384Z,40.13
2018-11-05T18:30:12.447Z,43.53
2018-11-05T18:32:41.504Z,45.90
2018-11-05T18:35:12.070Z,41.17
2018-11-05T18:37:41.833Z,40.33
2018-11-05T18:40:12.654Z,41.77
2018-11-05T18:42:42.263Z,37.57
2018-11-05T18:45:11.804Z,47.33
2018-11-05T18:47:40.843Z,50.30
2018-11-05T18:50:11.547Z,48.50
2018-11-05T18:52:40.798Z,39.70
2018-11-05T18:55:11.209Z,42.90
2018-11-05T18:57:40.624Z,39.50
2018-11-05T19:00:17.918Z,47.47
2018-11-05T19:02:47.401Z,40.47
2018-11-05T19:05:16.730Z,42.83
2018-11-05T19:07:46.010Z,40.57
2018-11-05T19:10:14.949Z,36.30
2018-11-05T19:12:43.922Z,45.63
2018-11-05T19:15:14.199Z,44.13
2018-11-05T19:17:44.230Z,39.00
2018-11-05T19:20:13.322Z,42.53
2018-11-05T19:22:42.919Z,37.37
2018-11-05T19:25:12.954Z,43.77
2018-11-05T19:27:42.350Z,40.43
2018-11-05T19:30:14.823Z,37.90
2018-11-05T19:32:45.238Z,32.53
2018-11-05T19:35:14.196Z,36.67
2018-11-05T19:37:44.263Z,38.27
2018-11-05T19:40:14.181Z,40.63
2018-11-05T19:42:44.257Z,34.30
2018-11-05T19:45:15.032Z,47.80
2018-11-05T19:47:44.150Z,37.13
2018-11-05T19:50:15.132Z,40.80
2018-11-05T19:52:46.073Z,42.80
2018-11-05T19:55:16.105Z,40.17
2018-11-05T19:57:45.750Z,42.50
2018-11-05T20:00:15.689Z,46.53
2018-11-05T20:02:45.250Z,39.30
2018-11-05T20:05:14.720Z,38.30
2018-11-05T20:07:44.214Z,39.27
2018-11-05T20:10:14.107Z,43.43
2018-11-05T20:12:44.071Z,39.60
2018-11-05T20:15:13.092Z,45.33
2018-11-05T20:17:43.205Z,34.70
2018-11-05T20:20:13.454Z,42.47
2018-11-05T20:22:42.596Z,33.23
2018-11-05T20:25:11.763Z,39.03
2018-11-05T20:27:41.493Z,42.43
2018-11-05T20:30:14.383Z,36.77
2018-11-05T20:32:44.421Z,38.10
2018-11-05T20:35:13.210Z,38.27
2018-11-05T20:37:42.207Z,42.40
2018-11-05T20:40:13.284Z,37.40
2018-11-05T20:42:43.432Z,36.07
2018-11-05T20:45:12.849Z,39.13
2018-11-05T20:47:42.057Z,41.90
2018-11-05T20:50:11.825Z,38.77
2018-11-05T20:52:40.982Z,32.17
2018-11-05T20:55:11.259Z,35.87
2018-11-05T20:57:41.282Z,40.13
2018-11-05T21:00:11.952Z,39.37
2018-11-05T21:02:41.389Z,38.50
2018-11-05T21:05:10.496Z,40.60
2018-11-05T21:07:40.513Z,39.57
2018-11-05T21:10:10.925Z,40.53
2018-11-05T21:12:40.642Z,36.70
2018-11-05T21:15:14.945Z,42.10
2018-11-05T21:17:44.871Z,41.83
2018-11-05T21:20:14.247Z,41.57
2018-11-05T21:22:43.606Z,47.93
2018-11-05T21:25:12.462Z,46.27
2018-11-05T21:27:42.371Z,59.33
2018-11-05T21:30:13.572Z,53.37
2018-11-05T21:32:42.659Z,50.60
2018-11-05T21:35:13.698Z,57.77
2018-11-05T21:37:43.073Z,58.10
2018-11-05T21:40:13.254Z,56.57
2018-11-05T21:42:43.303Z,65.67
2018-11-05T21:45:14.215Z,64.53
2018-11-05T21:47:43.923Z,62.57
2018-11-05T21:50:14.519Z,58.63
2018-11-05T21:52:44.086Z,63.77
2018-11-05T21:55:13.079Z,61.27
2018-11-05T21:57:43.249Z,67.33
2018-11-05T22:00:15.185Z,53.77
2018-11-05T22:02:49.780Z,47.20
2018-11-05T22:05:18.751Z,49.60
2018-11-05T22:07:49.062Z,53.43
2018-11-05T22:10:18.015Z,54.03
2018-11-05T22:12:47.574Z,42.63
2018-11-05T22:15:16.562Z,38.67
2018-11-05T22:17:45.749Z,48.50
2018-11-05T22:20:15.888Z,44.07
2018-11-05T22:22:45.094Z,43.37
2018-11-05T22:25:13.906Z,53.63
2018-11-05T22:27:43.054Z,46.97
2018-11-05T22:30:12.550Z,55.53
2018-11-05T22:32:41.515Z,49.53
2018-11-05T22:35:10.481Z,43.03
2018-11-05T22:37:39.447Z,53.40
2018-11-05T22:40:10.749Z,46.93
2018-11-05T22:42:39.852Z,46.27
2018-11-05T22:45:09.772Z,46.10
2018-11-05T22:47:38.870Z,42.17
2018-11-05T22:50:08.418Z,49.93
2018-11-05T22:52:38.027Z,53.60
2018-11-05T22:55:07.278Z,41.00
2018-11-05T22:57:37.246Z,55.60
2018-11-05T23:00:13.425Z,44.77
2018-11-05T23:02:46.535Z,53.43
2018-11-05T23:05:15.631Z,46.27
2018-11-05T23:07:44.731Z,39.20
2018-11-05T23:10:13.906Z,47.60
2018-11-05T23:12:42.908Z,39.30
2018-11-05T23:15:11.889Z,49.10
2018-11-05T23:17:40.869Z,52.90
2018-11-05T23:20:11.450Z,43.77
2018-11-05T23:22:41.241Z,48.37
2018-11-05T23:25:10.484Z,50.50
2018-11-05T23:27:39.878Z,52.03
2018-11-05T23:30:10.656Z,50.00
2018-11-05T23:32:40.258Z,46.70
2018-11-05T23:35:09.963Z,51.07
2018-11-05T23:37:39.760Z,48.40
2018-11-05T23:40:09.193Z,54.73
2018-11-05T23:42:38.874Z,50.37
2018-11-05T23:45:11.145Z,47.30
2018-11-05T23:47:40.205Z,43.60
2018-11-05T23:50:10.203Z,53.40
2018-11-05T23:52:39.251Z,55.33
2018-11-05T23:55:09.158Z,48.63
2018-11-05T23:57:38.211Z,50.97
